createdAt,value
2023-01-11T00:05:26.402Z,9.8
2023-01-11T00:07:28.152Z,9.8
2023-01-11T00:09:29.898Z,9.8
2023-01-11T00:15:35.144Z,10
2023-01-11T00:17:36.883Z,10
2023-01-11T00:19:41.871Z,10
2023-01-11T00:23:45.349Z,10.1
2023-01-11T00:26:49.603Z,10.1
2023-01-11T00:30:53.153Z,10.2
2023-01-11T00:32:58.088Z,10.1
2023-01-11T00:34:59.829Z,10.2
2023-01-11T00:39:03.321Z,10.3
2023-01-11T00:41:05.077Z,10.4
2023-01-11T00:43:06.823Z,10.3
2023-01-11T00:45:08.584Z,10.4
2023-01-11T00:47:13.542Z,10.4
2023-01-11T00:49:15.297Z,10.2
2023-01-11T00:51:17.043Z,10.3
2023-01-11T00:53:18.800Z,10.3
2023-01-11T00:57:22.306Z,10.5
2023-01-11T01:01:29.121Z,10.3
2023-01-11T01:03:30.806Z,10.5
2023-01-11T01:09:36.069Z,10.4
2023-01-11T01:11:37.819Z,10.4
2023-01-11T01:13:39.588Z,10.3
2023-01-11T01:15:44.605Z,10.3
2023-01-11T01:17:46.347Z,10.5
2023-01-11T01:19:48.095Z,10.4
2023-01-11T01:20:50.616Z,10.7
2023-01-11T01:22:52.330Z,10.5
2023-01-11T01:24:54.105Z,10.4
2023-01-11T01:26:55.907Z,10.5
2023-01-11T01:31:02.722Z,10.4
2023-01-11T01:33:04.363Z,10.4
2023-01-11T01:35:06.123Z,10.4
2023-01-11T01:37:07.866Z,10.6
2023-01-11T01:39:09.625Z,10.4
2023-01-11T01:41:11.371Z,10.4
2023-01-11T01:43:16.370Z,10.6
2023-01-11T01:45:18.115Z,10.5
2023-01-11T01:47:19.881Z,10.7
2023-01-11T01:49:21.623Z,10.6
2023-01-11T01:51:23.386Z,10.6
2023-01-11T01:53:25.130Z,10.6
2023-01-11T01:55:26.899Z,10.6
2023-01-11T01:57:31.890Z,10.5
2023-01-11T01:59:33.643Z,10.7
2023-01-11T02:01:35.413Z,10.7
2023-01-11T02:05:38.914Z,10.8
2023-01-11T02:07:40.676Z,10.5
2023-01-11T02:09:42.439Z,10.7
2023-01-11T02:11:47.434Z,10.6
2023-01-11T02:13:49.193Z,10.7
2023-01-11T02:15:50.979Z,10.7
2023-01-11T02:18:55.214Z,10.7
2023-01-11T02:20:56.969Z,10.7
2023-01-11T02:22:58.740Z,10.7
2023-01-11T02:25:03.745Z,10.8
2023-01-11T02:27:05.499Z,10.7
2023-01-11T02:29:07.267Z,10.8
2023-01-11T02:31:09.071Z,10.7
2023-01-11T02:33:10.797Z,11
2023-01-11T02:35:12.573Z,10.8
2023-01-11T02:37:14.333Z,10.8
2023-01-11T02:39:19.340Z,10.8
2023-01-11T02:41:21.107Z,10.9
2023-01-11T02:43:22.869Z,11
2023-01-11T02:45:24.640Z,10.7
2023-01-11T02:47:26.401Z,10.9
2023-01-11T02:49:28.159Z,10.8
2023-01-11T02:53:34.932Z,10.9
2023-01-11T02:55:36.709Z,11
2023-01-11T02:57:38.502Z,10.8
2023-01-11T02:59:40.214Z,10.8
2023-01-11T03:05:45.513Z,10.8
2023-01-11T03:07:50.510Z,11
2023-01-11T03:14:22.656Z,10.8
2023-01-11T03:16:24.512Z,11
2023-01-11T03:18:26.184Z,11.2
2023-01-11T03:20:31.327Z,11
2023-01-11T03:24:34.735Z,11
2023-01-11T03:26:36.486Z,11.1
2023-01-11T03:28:38.247Z,11.2
2023-01-11T03:30:40.008Z,11.3
2023-01-11T03:32:41.779Z,11
2023-01-11T03:34:46.801Z,11.2
2023-01-11T03:36:48.551Z,11.2
2023-01-11T03:38:50.324Z,11.1
2023-01-11T03:40:52.083Z,11.3
2023-01-11T03:42:53.867Z,11.4
2023-01-11T03:44:55.670Z,11.3
2023-01-11T03:46:57.511Z,11.5
2023-01-11T03:49:02.425Z,11.2
2023-01-11T03:51:04.192Z,11.4
2023-01-11T03:53:05.960Z,11.4
2023-01-11T03:55:07.736Z,11.3
2023-01-11T03:57:09.487Z,11.3
2023-01-11T03:59:11.257Z,11.5
2023-01-11T04:01:13.094Z,11.6
2023-01-11T04:03:18.020Z,11.6
2023-01-11T04:05:19.786Z,11.5
2023-01-11T04:07:21.584Z,11.6
2023-01-11T04:10:25.850Z,11.5
2023-01-11T04:12:27.620Z,11.5
2023-01-11T04:14:29.400Z,11.4
2023-01-11T04:16:36.096Z,11.5
2023-01-11T04:18:37.701Z,11.5
2023-01-11T04:20:39.475Z,11.5
2023-01-11T04:22:41.272Z,11.6
2023-01-11T04:24:43.079Z,11.4
2023-01-11T04:26:44.814Z,11.4
2023-01-11T04:28:46.591Z,11.7
2023-01-11T04:30:51.638Z,11.6
2023-01-11T04:32:53.392Z,11.6
2023-01-11T04:34:55.175Z,11.6
2023-01-11T04:36:56.948Z,11.7
2023-01-11T04:38:58.719Z,11.6
2023-01-11T04:41:00.499Z,11.6
2023-01-11T04:43:02.401Z,11.6
2023-01-11T04:45:07.302Z,11.5
2023-01-11T04:47:09.072Z,11.6
2023-01-11T04:49:10.840Z,11.6
2023-01-11T04:53:14.408Z,11.5
2023-01-11T04:55:16.182Z,11.6
2023-01-11T04:57:17.934Z,11.6
2023-01-11T05:01:24.777Z,11.6
2023-01-11T05:04:29.136Z,11.6
2023-01-11T05:06:30.821Z,11.5
2023-01-11T05:08:32.578Z,11.6
2023-01-11T05:10:34.379Z,11.8
2023-01-11T05:12:39.405Z,11.7
2023-01-11T05:14:41.201Z,11.8
2023-01-11T05:16:42.987Z,11.9
2023-01-11T05:18:44.718Z,11.8
2023-01-11T05:20:46.518Z,11.9
2023-01-11T05:24:50.052Z,11.7
2023-01-11T05:26:55.089Z,11.7
2023-01-11T05:28:56.863Z,11.7
2023-01-11T05:30:58.630Z,11.7
2023-01-11T05:33:00.409Z,11.8
2023-01-11T05:35:02.242Z,11.8
2023-01-11T05:37:03.974Z,11.9
2023-01-11T05:39:05.769Z,11.8
2023-01-11T05:41:10.760Z,11.6
2023-01-11T05:43:12.528Z,11.9
2023-01-11T05:45:14.299Z,11.8
2023-01-11T05:47:16.086Z,11.5
2023-01-11T05:49:17.868Z,11.7
2023-01-11T05:51:19.629Z,11.9
2023-01-11T05:53:21.382Z,11.6
2023-01-11T05:55:26.387Z,11.7
2023-01-11T05:57:28.182Z,11.8
2023-01-11T05:59:32.111Z,11.8
2023-01-11T06:00:32.461Z,11.8
2023-01-11T06:04:36.000Z,11.7
2023-01-11T06:06:37.790Z,11.6
2023-01-11T06:10:44.541Z,11.7
2023-01-11T06:12:46.318Z,11.6
2023-01-11T06:14:48.085Z,11.6
2023-01-11T06:16:49.954Z,11.5
2023-01-11T06:18:51.630Z,11.6
2023-01-11T06:20:53.404Z,11.6
2023-01-11T06:22:58.399Z,11.5
2023-01-11T06:25:00.196Z,11.6
2023-01-11T06:27:01.959Z,11.5
2023-01-11T06:29:03.724Z,11.6
2023-01-11T06:31:05.580Z,11.4
2023-01-11T06:33:07.263Z,11.7
2023-01-11T06:35:09.054Z,11.5
2023-01-11T06:37:14.054Z,11.4
2023-01-11T06:39:15.823Z,11.4
2023-01-11T06:41:17.588Z,11.3
2023-01-11T06:43:19.385Z,11.5
2023-01-11T06:45:21.166Z,11.6
2023-01-11T06:47:22.950Z,11.5
2023-01-11T06:49:24.702Z,11.3
2023-01-11T06:51:29.720Z,11.4
2023-01-11T06:58:01.908Z,11.2
2023-01-11T07:00:03.677Z,11.4
2023-01-11T07:02:05.461Z,11.4
2023-01-11T07:10:15.803Z,11.3
2023-01-11T07:14:19.333Z,11.2
2023-01-11T07:18:26.196Z,11.3
2023-01-11T07:20:27.884Z,11.1
2023-01-11T07:22:29.682Z,11.1
2023-01-11T07:28:35.029Z,11
2023-01-11T07:30:51.743Z,11.2
2023-01-11T07:32:41.770Z,10.9
2023-01-11T07:34:43.542Z,11
2023-01-11T07:36:45.304Z,11
2023-01-11T07:38:47.083Z,10.9
2023-01-11T07:40:48.848Z,10.7
2023-01-11T07:42:50.638Z,10.9
2023-01-11T07:44:52.391Z,10.8
2023-01-11T07:46:57.539Z,10.9
2023-01-11T07:48:59.160Z,10.7
2023-01-11T07:51:00.939Z,10.9
2023-01-11T07:52:03.449Z,10.7
2023-01-11T07:54:05.220Z,10.7
2023-01-11T07:56:06.974Z,10.8
2023-01-11T07:58:08.806Z,10.6
2023-01-11T08:00:13.792Z,10.7
2023-01-11T08:02:15.561Z,10.6
2023-01-11T08:04:17.312Z,10.7
2023-01-11T08:06:19.104Z,10.6
2023-01-11T08:08:20.839Z,10.7
2023-01-11T08:12:24.376Z,10.5
2023-01-11T08:14:29.390Z,10.5
2023-01-11T08:16:31.152Z,10.4
2023-01-11T08:18:32.918Z,10.4
2023-01-11T08:20:34.719Z,10.4
2023-01-11T08:22:36.438Z,10.4
2023-01-11T08:24:38.210Z,10.5
2023-01-11T08:26:39.998Z,10.4
2023-01-11T08:28:44.961Z,10.3
2023-01-11T08:30:46.716Z,10.4
2023-01-11T08:32:48.470Z,10.3
2023-01-11T08:34:50.282Z,10.4
2023-01-11T08:40:55.514Z,10.2
2023-01-11T08:43:00.531Z,10.3
2023-01-11T08:45:02.285Z,10.2
2023-01-11T08:48:06.535Z,10.2
2023-01-11T08:50:08.320Z,10.1
2023-01-11T08:52:10.078Z,10.2
2023-01-11T08:54:11.818Z,10.1
2023-01-11T08:56:16.815Z,10.1
2023-01-11T08:58:20.630Z,10.2
2023-01-11T09:00:20.350Z,10.1
2023-01-11T09:02:22.117Z,10.1
2023-01-11T09:04:25.394Z,10.2
2023-01-11T09:06:25.609Z,10.1
2023-01-11T09:08:27.376Z,10
2023-01-11T09:10:32.358Z,10.1
2023-01-11T09:14:35.895Z,10.1
2023-01-11T09:16:37.650Z,10
2023-01-11T09:24:47.900Z,10
2023-01-11T09:26:49.724Z,10
2023-01-11T09:30:53.160Z,9.9
2023-01-11T09:32:54.926Z,10
2023-01-11T09:34:56.655Z,9.8
2023-01-11T09:36:58.448Z,9.8
2023-01-11T09:41:05.161Z,9.8
2023-01-11T09:43:06.901Z,9.7
2023-01-11T09:44:09.417Z,9.7
2023-01-11T09:46:11.223Z,9.7
2023-01-11T09:48:12.939Z,9.7
2023-01-11T09:50:14.665Z,9.6
2023-01-11T09:52:19.630Z,10
2023-01-11T09:54:21.400Z,10.4
2023-01-11T09:56:23.130Z,10.2
2023-01-11T09:58:24.878Z,10.5
2023-01-11T10:00:26.749Z,10.7
2023-01-11T10:02:28.356Z,10.8
2023-01-11T10:04:30.307Z,11
2023-01-11T10:06:35.104Z,12.5
2023-01-11T10:18:23.559Z,10.6
2023-01-11T10:18:32.084Z,10.4
2023-01-11T10:19:12.293Z,11.1
2023-01-11T10:20:52.109Z,11.1
2023-01-11T10:22:53.872Z,11.2
2023-01-11T10:24:55.618Z,11.3
2023-01-11T10:26:57.430Z,12
2023-01-11T10:28:59.160Z,12.6
2023-01-11T10:31:01.103Z,11.5
2023-01-11T10:33:02.715Z,11.5
2023-01-11T10:35:07.691Z,12.3
2023-01-11T10:37:09.525Z,12.2
2023-01-11T10:39:11.210Z,12.4
2023-01-11T10:41:42.902Z,13
2023-01-11T10:43:41.592Z,12.7
2023-01-11T10:45:43.474Z,12.5
2023-01-11T10:47:48.381Z,12.7
2023-01-11T10:49:50.131Z,12.3
2023-01-11T10:53:53.747Z,13.1
2023-01-11T10:55:55.485Z,13.1
2023-01-11T10:58:00.158Z,12.8
2023-01-11T10:59:59.021Z,13.3
2023-01-11T11:02:04.138Z,13.7
2023-01-11T11:04:05.845Z,14.3
2023-01-11T11:06:07.628Z,14
2023-01-11T11:08:09.401Z,13.5
2023-01-11T11:10:11.198Z,12.3
2023-01-11T11:12:12.982Z,12
2023-01-11T11:14:14.781Z,11.9
2023-01-11T11:16:19.818Z,11.4
2023-01-11T11:18:21.581Z,11.8
2023-01-11T11:20:23.359Z,12
2023-01-11T11:22:25.165Z,12
2023-01-11T11:24:26.903Z,12
2023-01-11T11:30:35.530Z,12.7
2023-01-11T11:32:37.282Z,12.5
2023-01-11T11:34:39.070Z,12.7
2023-01-11T11:35:41.624Z,12.1
2023-01-11T11:37:43.397Z,12.3
2023-01-11T11:39:45.153Z,12.3
2023-01-11T11:41:46.927Z,12.3
2023-01-11T11:43:51.936Z,12.5
2023-01-11T11:45:53.744Z,12.7
2023-01-11T11:47:55.485Z,13.3
2023-01-11T11:49:57.248Z,14
2023-01-11T11:51:59.046Z,13.1
2023-01-11T11:54:00.801Z,12.3
2023-01-11T11:56:02.587Z,12.4
2023-01-11T11:58:07.612Z,12.4
2023-01-11T12:00:09.408Z,12.7
2023-01-11T12:02:11.269Z,12.8
2023-01-11T12:06:14.732Z,13.4
2023-01-11T12:08:16.543Z,12.9
2023-01-11T12:10:18.349Z,13
2023-01-11T12:12:26.409Z,12.3
2023-01-11T12:14:25.107Z,12.2
2023-01-11T12:16:26.962Z,12.9
2023-01-11T12:18:28.681Z,13.9
2023-01-11T12:20:30.492Z,14.6
2023-01-11T12:22:32.260Z,15.7
2023-01-11T12:24:34.052Z,16
2023-01-11T12:26:39.133Z,16.8
2023-01-11T12:28:40.867Z,16.5
2023-01-11T12:31:45.148Z,14.2
2023-01-11T12:33:46.951Z,13.4
2023-01-11T12:35:48.717Z,13
2023-01-11T12:37:50.547Z,12.2
2023-01-11T12:39:55.533Z,12.1
2023-01-11T12:41:57.348Z,12.1
2023-01-11T12:43:59.119Z,12
2023-01-11T12:46:00.976Z,12
2023-01-11T12:48:02.716Z,12.8
2023-01-11T12:50:04.511Z,13.5
2023-01-11T12:52:06.289Z,14.2
2023-01-11T12:54:11.325Z,13
2023-01-11T12:56:13.121Z,12.5
2023-01-11T13:02:18.534Z,12.8
2023-01-11T13:04:20.387Z,14.1
2023-01-11T13:10:28.856Z,13.2
2023-01-11T13:18:35.993Z,12.5
2023-01-11T13:20:58.574Z,12.2
2023-01-11T13:22:42.798Z,12.2
2023-01-11T13:24:44.583Z,12.1
2023-01-11T13:27:48.896Z,12.9
2023-01-11T13:29:50.641Z,13.2
2023-01-11T13:31:52.448Z,13.4
2023-01-11T13:35:59.249Z,12.4
2023-01-11T13:46:08.235Z,11.5
2023-01-11T13:48:09.945Z,11.5
2023-01-11T13:50:14.945Z,11.3
2023-01-11T13:52:16.736Z,11.2
2023-01-11T13:54:18.634Z,11.3
2023-01-11T13:56:20.324Z,11.3
2023-01-11T13:58:22.078Z,11.1
2023-01-11T14:00:23.821Z,11.3
2023-01-11T14:02:25.632Z,11.2
2023-01-11T14:04:30.588Z,11.3
2023-01-11T14:06:32.352Z,11.3
2023-01-11T14:08:35.699Z,11.3
2023-01-11T14:10:35.911Z,11.2
2023-01-11T14:12:37.684Z,11.3
2023-01-11T14:14:39.464Z,11.6
2023-01-11T14:16:41.230Z,11.4
2023-01-11T14:18:46.219Z,11.6
2023-01-11T14:20:48.065Z,11.4
2023-01-11T14:22:49.790Z,11.3
2023-01-11T14:25:18.424Z,11.3
2023-01-11T14:27:20.250Z,11.2
2023-01-11T14:29:21.951Z,11.2
2023-01-11T14:31:27.035Z,11.1
2023-01-11T14:33:28.754Z,11
2023-01-11T14:35:30.521Z,10.9
2023-01-11T14:37:32.262Z,11
2023-01-11T14:39:34.025Z,10.9
2023-01-11T14:41:35.788Z,10.9
2023-01-11T14:43:37.575Z,10.7
2023-01-11T14:45:42.558Z,10.6
2023-01-11T14:47:44.329Z,10.6
2023-01-11T14:49:46.100Z,10.7
2023-01-11T14:51:47.877Z,10.7
2023-01-11T14:53:49.664Z,10.7
2023-01-11T14:55:51.371Z,10.6
2023-01-11T14:57:53.137Z,10.6
2023-01-11T15:01:59.956Z,10.6
2023-01-11T15:04:01.667Z,10.5
2023-01-11T15:06:03.422Z,10.6
2023-01-11T15:08:05.167Z,10.6
2023-01-11T15:16:15.489Z,10.4
2023-01-11T15:18:17.210Z,10.4
2023-01-11T15:19:19.727Z,10.4
2023-01-11T15:21:21.477Z,10.4
2023-01-11T15:23:23.198Z,10.4
2023-01-11T15:25:24.961Z,10.2
2023-01-11T15:27:29.948Z,10.2
2023-01-11T15:29:31.710Z,10.2
2023-01-11T15:31:34.535Z,10.2
2023-01-11T15:33:35.360Z,9.9
2023-01-11T15:35:36.954Z,10.1
2023-01-11T15:39:40.435Z,9.8
2023-01-11T15:41:46.672Z,10
2023-01-11T15:49:52.424Z,9.8
2023-01-11T15:51:54.151Z,9.9
2023-01-11T15:53:55.886Z,9.8
2023-01-11T15:56:00.850Z,10
2023-01-11T15:58:02.584Z,9.9
2023-01-11T16:00:05.888Z,9.9
2023-01-11T16:02:07.577Z,9.9
2023-01-11T16:04:09.361Z,9.9
2023-01-11T16:06:11.040Z,9.9
2023-01-11T16:08:12.777Z,9.9
2023-01-11T16:12:19.546Z,9.9
2023-01-11T16:14:21.219Z,9.8
2023-01-11T16:27:37.440Z,9.8
2023-01-11T16:29:39.216Z,9.8
2023-01-11T16:31:41.002Z,9.8
2023-01-11T16:33:42.709Z,9.9
2023-01-11T16:35:44.458Z,9.7
2023-01-11T16:37:49.444Z,9.8
2023-01-11T16:39:51.220Z,9.9
2023-01-11T16:41:52.927Z,10
2023-01-11T16:43:54.683Z,10.1
2023-01-11T16:45:56.535Z,10
2023-01-11T16:47:58.214Z,10.1
2023-01-11T16:49:59.942Z,10.1
2023-01-11T16:52:04.913Z,10.1
2023-01-11T16:54:06.718Z,10.1
2023-01-11T16:56:08.414Z,10
2023-01-11T16:58:10.150Z,10
2023-01-11T17:00:11.897Z,9.9
2023-01-11T17:02:13.685Z,10.1
2023-01-11T17:04:19.245Z,10.1
2023-01-11T17:06:20.408Z,10.1
2023-01-11T17:08:22.199Z,10
2023-01-11T17:10:23.922Z,10
2023-01-11T17:13:28.149Z,10
2023-01-11T17:15:29.918Z,10
2023-01-11T17:17:31.766Z,10
2023-01-11T17:19:36.658Z,10.1
2023-01-11T17:23:40.185Z,10
2023-01-11T17:25:45.134Z,10.1
2023-01-11T17:27:43.711Z,10.1
2023-01-11T17:29:45.452Z,10.1
2023-01-11T17:31:47.281Z,10.1
2023-01-11T17:33:52.182Z,10.2
2023-01-11T17:35:53.936Z,10.1
2023-01-11T17:37:55.670Z,10.2
2023-01-11T17:39:57.558Z,10.1
2023-01-11T17:44:00.944Z,10.2
2023-01-11T17:50:09.420Z,10.3
2023-01-11T17:54:12.926Z,10.4
2023-01-11T17:56:14.652Z,10.3
2023-01-11T17:58:18.993Z,10.4
2023-01-11T18:00:18.171Z,10.3
2023-01-11T18:02:23.259Z,10.3
2023-01-11T18:04:24.912Z,10.3
2023-01-11T18:06:26.654Z,10.2
2023-01-11T18:08:55.295Z,10.3
2023-01-11T18:10:57.060Z,10.4
2023-01-11T18:12:58.821Z,10.4
2023-01-11T18:15:03.784Z,10.4
2023-01-11T18:17:05.632Z,10.4
2023-01-11T18:19:07.315Z,10.2
2023-01-11T18:21:09.066Z,10.3
2023-01-11T18:23:10.832Z,10.2
2023-01-11T18:25:12.560Z,10.3
2023-01-11T18:27:14.416Z,10.2
2023-01-11T18:29:19.308Z,10.3
2023-01-11T18:31:21.099Z,10.3
2023-01-11T18:33:22.781Z,10.3
2023-01-11T18:35:24.527Z,10.4
2023-01-11T18:39:28.061Z,10.3
2023-01-11T18:41:29.833Z,10.4
2023-01-11T18:43:34.844Z,10.3
2023-01-11T18:45:36.581Z,10.4
2023-01-11T18:47:38.326Z,10.5
2023-01-11T18:49:40.124Z,10.3
2023-01-11T18:51:41.877Z,10.3
2023-01-11T18:53:43.594Z,10.4
2023-01-11T18:55:45.364Z,10.2
2023-01-11T18:57:50.363Z,10
2023-01-11T18:59:52.104Z,10
2023-01-11T19:02:01.617Z,10
2023-01-11T19:02:56.362Z,9.9
2023-01-11T19:06:59.902Z,9.9
2023-01-11T19:11:06.621Z,9.6
2023-01-11T19:13:08.382Z,9.5
2023-01-11T19:15:10.133Z,9.4
2023-01-11T19:17:11.875Z,9.4
2023-01-11T19:19:13.616Z,9.5
2023-01-11T19:21:15.377Z,9.5
2023-01-11T19:23:17.124Z,9.5
2023-01-11T19:25:22.119Z,9.6
2023-01-11T19:27:23.868Z,9.6
2023-01-11T19:29:25.624Z,9.6
2023-01-11T19:31:27.357Z,9.6
2023-01-11T19:35:30.840Z,9.6
2023-01-11T19:37:32.606Z,9.6
2023-01-11T19:41:39.299Z,9.5
2023-01-11T19:43:41.036Z,9.5
2023-01-11T19:47:44.532Z,9.5
2023-01-11T19:57:56.462Z,9.2
2023-01-11T19:58:58.963Z,9.3
2023-01-11T20:01:00.711Z,9.3
2023-01-11T20:03:02.506Z,9.3
2023-01-11T20:05:04.170Z,9.2
2023-01-11T20:07:09.169Z,9.3
2023-01-11T20:09:10.900Z,9.3
2023-01-11T20:11:12.669Z,9.3
2023-01-11T20:13:14.406Z,9.1
2023-01-11T20:15:16.131Z,9.2
2023-01-11T20:17:17.843Z,9.2
2023-01-11T20:19:19.598Z,9.2
2023-01-11T20:21:24.590Z,9.1
2023-01-11T20:23:26.321Z,9
2023-01-11T20:25:28.053Z,9
2023-01-11T20:27:29.836Z,9.1
2023-01-11T20:29:31.528Z,9.1
2023-01-11T20:31:33.299Z,9.2
2023-01-11T20:33:35.019Z,9.2
2023-01-11T20:35:39.921Z,9
2023-01-11T20:37:41.683Z,9.1
2023-01-11T20:39:43.430Z,9
2023-01-11T20:43:46.884Z,9.1
2023-01-11T20:45:48.602Z,9
2023-01-11T20:47:50.351Z,9.1
2023-01-11T20:49:55.290Z,9.1
2023-01-11T20:51:57.041Z,9
2023-01-11T20:53:58.742Z,9.1
2023-01-11T20:55:01.243Z,9
2023-01-11T21:01:06.417Z,9
2023-01-11T21:03:11.402Z,8.9
2023-01-11T21:05:13.133Z,9.1
2023-01-11T21:07:14.884Z,9.1
2023-01-11T21:09:16.614Z,9
2023-01-11T21:11:18.317Z,9
2023-01-11T21:13:20.099Z,9
2023-01-11T21:15:21.811Z,9
2023-01-11T21:17:26.733Z,9.1
2023-01-11T21:19:28.444Z,8.9
2023-01-11T21:21:30.193Z,8.9
2023-01-11T21:23:31.937Z,8.9
2023-01-11T21:25:33.651Z,8.9
2023-01-11T21:27:35.354Z,9
2023-01-11T21:29:37.115Z,9
2023-01-11T21:31:42.263Z,9.1
2023-01-11T21:33:43.802Z,9.1
2023-01-11T21:35:45.509Z,9.1
2023-01-11T21:37:47.247Z,9.1
2023-01-11T21:39:48.992Z,9.1
2023-01-11T21:41:50.707Z,9.1
2023-01-11T21:45:57.394Z,9.1
2023-01-11T21:52:30.974Z,9
2023-01-11T21:54:32.715Z,9.1
2023-01-11T21:56:34.502Z,9.1
2023-01-11T21:58:39.400Z,9.1
2023-01-11T22:00:41.187Z,9.1
2023-01-11T22:04:44.605Z,9.1
2023-01-11T22:06:46.327Z,9
2023-01-11T22:08:48.068Z,9.1
2023-01-11T22:10:49.784Z,9.2
2023-01-11T22:12:54.762Z,9.1
2023-01-11T22:14:56.475Z,9.2
2023-01-11T22:16:58.226Z,9.1
2023-01-11T22:18:59.952Z,9.1
2023-01-11T22:21:01.663Z,9.3
2023-01-11T22:23:03.410Z,9.1
2023-01-11T22:25:05.148Z,9.2
2023-01-11T22:27:10.164Z,9.3
2023-01-11T22:29:11.873Z,9.2
2023-01-11T22:31:13.568Z,9.1
2023-01-11T22:33:15.286Z,9.2
2023-01-11T22:35:17.022Z,9.3
2023-01-11T22:37:18.761Z,9.4
2023-01-11T22:39:20.501Z,9.3
2023-01-11T22:41:25.475Z,9.2
2023-01-11T22:43:27.219Z,9.3
2023-01-11T22:45:28.981Z,9.3
2023-01-11T22:48:33.162Z,9.3
2023-01-11T22:50:34.887Z,9.2
2023-01-11T22:52:36.622Z,9.1
2023-01-11T22:58:45.048Z,9.1
2023-01-11T23:00:46.778Z,9.2
2023-01-11T23:02:48.581Z,9.2
2023-01-11T23:04:50.267Z,9.2
2023-01-11T23:10:58.678Z,9.2
2023-01-11T23:13:00.442Z,9.2
2023-01-11T23:15:02.177Z,9.2
2023-01-11T23:17:03.881Z,9.3
2023-01-11T23:19:05.579Z,9.2
2023-01-11T23:21:07.315Z,9.4
2023-01-11T23:23:12.316Z,9.2
2023-01-11T23:25:14.029Z,9.3
2023-01-11T23:27:15.754Z,9.4
2023-01-11T23:29:17.449Z,9.4
2023-01-11T23:31:19.328Z,9.3
2023-01-11T23:33:20.920Z,9.3
2023-01-11T23:35:22.642Z,9.5
2023-01-11T23:37:27.608Z,9.4
2023-01-11T23:39:29.325Z,9.4
2023-01-11T23:42:33.555Z,9.5
2023-01-11T23:44:35.288Z,9.4
2023-01-11T23:46:37.011Z,9.3
2023-01-11T23:48:38.748Z,9.4
2023-01-11T23:50:43.737Z,9.4
2023-01-11T23:52:45.477Z,9.4
2023-01-11T23:54:47.224Z,9.4
2023-01-11T23:58:50.674Z,9.5
